Time;durP1;ratioP1;P1;durP2;ratioP2;P2;SDS_P1;SDS_P2;PMS_P1;PMS_P2;Temp;Humidity;BMP_temperature;BMP_pressure;BME280_temperature;BME280_humidity;BME280_pressure;Samples;Min_cycle;Max_cycle;Signal;HPM_P1;HPM_P2
2022/08/31 00:05:30;;;;;;;16.27;10.25;;;;;;;17.88;98.25;94791.03;1537461;92;21021;-53
2022/08/31 00:07:59;;;;;;;14.85;10.78;;;;;;;17.82;98.79;94788.80;1543439;92;21574;-51
2022/08/31 00:10:28;;;;;;;14.18;11.45;;;;;;;17.82;99.31;94788.05;1514380;93;21015;-52
2022/08/31 00:12:55;;;;;;;13.98;10.75;;;;;;;17.79;99.39;94782.08;1521577;93;21158;-53
2022/08/31 00:15:24;;;;;;;13.98;10.15;;;;;;;17.79;99.55;94789.05;1538096;91;21038;-52
2022/08/31 00:17:52;;;;;;;12.70;9.75;;;;;;;17.81;99.94;94790.70;1547432;92;21019;-53
2022/08/31 00:20:20;;;;;;;17.55;10.35;;;;;;;17.83;99.51;94785.41;1538087;92;21093;-54
2022/08/31 00:22:48;;;;;;;12.88;9.93;;;;;;;17.87;99.70;94790.11;1549348;91;21586;-52
2022/08/31 00:25:17;;;;;;;14.87;10.68;;;;;;;17.94;99.34;94784.87;1514287;93;22262;-53
2022/08/31 00:27:44;;;;;;;14.65;10.35;;;;;;;17.98;98.91;94790.22;1554198;92;21562;-53
2022/08/31 00:30:13;;;;;;;15.13;9.83;;;;;;;18.00;98.64;94787.70;1537949;92;21038;-53
2022/08/31 00:32:41;;;;;;;13.15;9.83;;;;;;;18.03;98.25;94781.89;1536264;92;21021;-53
2022/08/31 00:35:10;;;;;;;12.43;8.55;;;;;;;18.06;98.11;94791.29;1535739;92;21097;-53
2022/08/31 00:37:37;;;;;;;16.00;9.55;;;;;;;18.07;97.71;94783.84;1539074;91;21917;-53
2022/08/31 00:40:07;;;;;;;16.75;9.65;;;;;;;18.06;97.09;94785.72;1537658;92;21064;-52
2022/08/31 00:42:35;;;;;;;14.60;8.40;;;;;;;18.00;96.92;94783.53;1536681;92;21074;-53
2022/08/31 00:45:04;;;;;;;10.58;7.53;;;;;;;17.97;96.89;94785.91;1536553;92;21145;-53
2022/08/31 00:47:32;;;;;;;8.85;7.25;;;;;;;17.95;96.83;94786.39;1534923;92;21659;-52
2022/08/31 00:50:00;;;;;;;14.50;9.00;;;;;;;17.95;96.22;94785.00;1536784;92;21134;-53
2022/08/31 00:52:31;;;;;;;12.07;9.18;;;;;;;17.94;95.66;94779.91;1534027;91;21069;-53
2022/08/31 00:55:02;;;;;;;12.03;7.42;;;;;;;17.88;95.76;94780.50;1539125;91;21069;-54
2022/08/31 00:57:33;;;;;;;11.85;7.35;;;;;;;17.86;95.80;94774.67;1539458;93;21064;-52
2022/08/31 01:00:03;;;;;;;10.25;6.42;;;;;;;17.87;95.78;94778.98;1538732;92;21270;-52
2022/08/31 01:02:31;;;;;;;9.50;6.70;;;;;;;17.87;95.69;94784.55;1537598;92;21527;-52
2022/08/31 01:04:59;;;;;;;13.03;7.42;;;;;;;17.82;95.54;94778.31;1539475;92;21005;-53
2022/08/31 01:07:28;;;;;;;10.75;7.80;;;;;;;17.76;95.79;94778.88;1537585;92;21215;-53
2022/08/31 01:09:56;;;;;;;12.15;8.13;;;;;;;17.68;95.84;94772.98;1537712;91;21064;-53
2022/08/31 01:12:25;;;;;;;10.78;7.35;;;;;;;17.64;95.99;94780.04;1538371;92;21104;-53
2022/08/31 01:14:52;;;;;;;16.07;8.20;;;;;;;17.63;96.34;94778.52;1539441;91;21813;-53
2022/08/31 01:17:21;;;;;;;12.55;7.85;;;;;;;17.66;96.67;94775.49;1541696;93;21434;-53
2022/08/31 01:20:18;;;;;;;11.65;7.97;;;;;;;17.71;96.72;94776.80;1539256;92;21024;-53
2022/08/31 01:23:03;;;;;;;10.25;7.80;;;;;;;17.72;96.62;94773.55;1537829;91;21033;-52
2022/08/31 01:25:31;;;;;;;11.78;8.28;;;;;;;17.71;96.62;94774.80;1539060;93;21034;-52
2022/08/31 01:27:59;;;;;;;11.93;8.10;;;;;;;17.71;96.56;94771.24;1540227;92;21857;-53
2022/08/31 01:30:27;;;;;;;10.45;7.55;;;;;;;17.68;96.81;94775.77;1538660;92;21021;-53
2022/08/31 01:32:56;;;;;;;12.60;8.98;;;;;;;17.69;97.11;94771.75;1537942;92;21592;-53
2022/08/31 01:35:24;;;;;;;12.93;9.00;;;;;;;17.70;97.38;94771.11;1529911;93;21137;-54
2022/08/31 01:37:52;;;;;;;12.55;8.73;;;;;;;17.71;97.46;94774.80;1542230;93;21030;-53
2022/08/31 01:40:20;;;;;;;11.75;7.22;;;;;;;17.72;98.00;94777.72;1526697;93;21244;-54
2022/08/31 01:42:48;;;;;;;9.40;7.10;;;;;;;17.72;97.53;94775.55;1537548;93;21153;-53
2022/08/31 01:45:16;;;;;;;8.03;5.42;;;;;;;17.71;97.75;94785.16;1536862;92;21053;-53
2022/08/31 01:47:44;;;;;;;8.35;6.25;;;;;;;17.67;97.49;94780.45;1536836;91;21657;-53
2022/08/31 01:50:11;;;;;;;10.85;6.83;;;;;;;17.65;97.17;94782.95;1587433;90;21082;-53
2022/08/31 01:52:39;;;;;;;9.58;6.83;;;;;;;17.61;97.24;94778.25;1534119;92;21876;-53
2022/08/31 01:55:09;;;;;;;9.53;7.03;;;;;;;17.59;97.58;94772.38;1529597;92;21049;-53
2022/08/31 01:57:37;;;;;;;10.63;6.62;;;;;;;17.56;97.42;94769.20;1522457;93;21533;-52
2022/08/31 02:00:23;;;;;;;12.28;6.85;;;;;;;17.55;97.61;94769.06;1514961;93;21128;-52
2022/08/31 02:02:51;;;;;;;13.05;6.65;;;;;;;17.51;97.84;94767.13;1545683;90;21015;-52
2022/08/31 02:05:20;;;;;;;11.33;7.78;;;;;;;17.49;98.08;94769.64;1538694;93;21203;-54
2022/08/31 02:07:50;;;;;;;8.15;7.25;;;;;;;17.43;98.20;94767.45;1535198;92;21018;-53
2022/08/31 02:10:18;;;;;;;12.20;7.65;;;;;;;17.42;98.66;94771.48;1541995;93;21085;-53
2022/08/31 02:12:46;;;;;;;15.78;7.17;;;;;;;17.42;98.95;94766.67;1542405;93;21052;-54
2022/08/31 02:15:14;;;;;;;11.25;7.70;;;;;;;17.46;99.04;94772.02;1526405;92;21083;-53
2022/08/31 02:17:43;;;;;;;11.85;6.80;;;;;;;17.51;98.99;94762.96;1536136;92;21288;-53
2022/08/31 02:20:12;;;;;;;14.40;7.42;;;;;;;17.53;98.53;94755.66;1538128;92;21065;-53
2022/08/31 02:22:39;;;;;;;10.00;7.50;;;;;;;17.49;98.31;94749.53;1538978;91;21029;-54
2022/08/31 02:25:10;;;;;;;9.60;6.90;;;;;;;17.46;98.40;94749.13;1539644;91;21034;-53
2022/08/31 02:27:39;;;;;;;13.10;7.10;;;;;;;17.44;98.97;94745.33;1520444;93;21637;-54
2022/08/31 02:30:10;;;;;;;13.85;6.78;;;;;;;17.48;98.88;94747.26;1533732;93;21250;-53
2022/08/31 02:32:39;;;;;;;10.20;7.40;;;;;;;17.46;98.70;94744.20;1542464;92;21550;-53
2022/08/31 02:35:07;;;;;;;11.00;6.62;;;;;;;17.45;98.76;94744.08;1539098;92;21104;-53
2022/08/31 02:37:37;;;;;;;12.18;6.53;;;;;;;17.42;98.81;94749.98;1538022;91;21083;-53
2022/08/31 02:40:07;;;;;;;7.28;6.40;;;;;;;17.40;98.98;94742.75;1538461;90;21108;-54
2022/08/31 02:42:37;;;;;;;14.05;6.28;;;;;;;17.42;98.89;94749.23;1538316;91;21631;-53
2022/08/31 02:45:06;;;;;;;11.18;6.50;;;;;;;17.44;98.90;94739.77;1539370;92;21114;-53
2022/08/31 02:47:34;;;;;;;10.98;6.70;;;;;;;17.47;98.90;94742.31;1537708;92;21033;-52
2022/08/31 02:50:22;;;;;;;9.63;6.75;;;;;;;17.44;98.70;94742.55;1538013;90;21081;-52
2022/08/31 02:52:53;;;;;;;8.38;6.60;;;;;;;17.39;99.21;94737.67;1539538;93;21144;-53
2022/08/31 02:55:20;;;;;;;9.38;6.35;;;;;;;17.38;99.13;94740.32;1537824;92;21576;-53
2022/08/31 02:57:50;;;;;;;7.25;6.10;;;;;;;17.34;99.31;94742.56;1538399;92;21062;-53
2022/08/31 03:00:20;;;;;;;11.38;7.25;;;;;;;17.35;99.63;94738.52;1538017;90;21028;-52
2022/08/31 03:02:48;;;;;;;10.95;7.20;;;;;;;17.37;99.99;94740.19;1538820;92;21116;-53
2022/08/31 03:05:17;;;;;;;17.02;6.92;;;;;;;17.40;100.00;94738.58;1539919;91;21026;-53
2022/08/31 03:07:45;;;;;;;9.38;7.67;;;;;;;17.43;99.83;94745.94;1538671;92;21347;-52
2022/08/31 03:10:14;;;;;;;9.50;6.62;;;;;;;17.44;99.43;94741.16;1537528;92;21097;-52
2022/08/31 03:12:42;;;;;;;8.90;6.78;;;;;;;17.44;99.51;94743.94;1539339;92;21018;-53
2022/08/31 03:15:10;;;;;;;14.05;7.15;;;;;;;17.46;99.57;94742.17;1540132;91;21123;-53
2022/08/31 03:17:39;;;;;;;14.18;7.85;;;;;;;17.50;99.22;94741.32;1540107;93;21029;-53
2022/08/31 03:20:08;;;;;;;14.38;6.90;;;;;;;17.51;99.41;94740.70;1556963;89;21104;-53
2022/08/31 03:22:36;;;;;;;10.28;7.00;;;;;;;17.53;99.27;94744.53;1537301;92;21097;-53
2022/08/31 03:25:06;;;;;;;11.65;7.35;;;;;;;17.53;98.63;94743.14;1537495;92;22324;-53
2022/08/31 03:27:35;;;;;;;16.75;9.73;;;;;;;17.51;98.73;94743.48;1537854;92;21137;-53
2022/08/31 03:30:07;;;;;;;12.75;7.50;;;;;;;17.52;98.69;94745.02;1538470;92;21049;-53
2022/08/31 03:32:36;;;;;;;9.48;6.10;;;;;;;17.52;98.23;94742.23;1540258;93;21939;-54
2022/08/31 03:35:05;;;;;;;8.65;6.58;;;;;;;17.47;97.90;94746.48;1517356;93;21097;-53
2022/08/31 03:37:34;;;;;;;8.48;6.45;;;;;;;17.41;98.12;94745.67;1536706;91;21167;-54
2022/08/31 03:40:03;;;;;;;8.85;6.15;;;;;;;17.41;98.36;94739.33;1536123;92;21050;-53
2022/08/31 03:42:32;;;;;;;7.22;5.70;;;;;;;17.44;98.27;94744.69;1536780;91;21155;-52
2022/08/31 03:45:01;;;;;;;11.78;6.65;;;;;;;17.43;98.12;94740.38;1536083;92;21271;-54
2022/08/31 03:47:30;;;;;;;12.18;7.22;;;;;;;17.42;98.03;94744.42;1541843;92;21017;-54
2022/08/31 03:49:59;;;;;;;12.63;6.78;;;;;;;17.43;98.03;94749.37;1537663;93;21026;-53
2022/08/31 03:52:28;;;;;;;12.53;7.45;;;;;;;17.43;97.98;94753.54;1540670;91;21477;-52
2022/08/31 03:55:01;;;;;;;;;;;;;;;17.42;97.90;94752.02;1543704;91;21057;-53
2022/08/31 03:57:29;;;;;;;10.85;6.60;;;;;;;17.41;97.95;94749.84;1587661;88;21190;-53
2022/08/31 03:59:59;;;;;;;14.40;7.67;;;;;;;17.39;98.04;94752.36;1587696;90;21056;-54
2022/08/31 04:02:42;;;;;;;17.30;7.47;;;;;;;17.38;98.13;94759.17;1530663;92;21051;-53
2022/08/31 04:05:30;;;;;;;10.72;7.75;;;;;;;17.34;98.21;94753.69;1525536;91;21171;-52
2022/08/31 04:08:13;;;;;;;20.40;12.53;;;;;;;17.36;98.54;94751.95;1513188;93;21065;-53
2022/08/31 04:10:45;;;;;;;17.40;14.95;;;;;;;17.38;98.33;94752.84;1520880;93;21300;-53
2022/08/31 04:13:31;;;;;;;20.12;14.18;;;;;;;17.39;98.56;94754.36;1514355;93;21166;-53
2022/08/31 04:16:11;;;;;;;14.73;8.03;;;;;;;17.37;98.51;94762.44;1519413;92;21026;-53
2022/08/31 04:18:53;;;;;;;8.40;6.10;;;;;;;17.36;98.54;94763.69;1515243;93;21047;-53
2022/08/31 04:21:24;;;;;;;10.48;5.72;;;;;;;17.34;98.62;94765.59;1518138;93;21006;-52
2022/08/31 04:23:53;;;;;;;11.57;5.55;;;;;;;17.29;98.44;94765.49;1522290;93;21502;-52
2022/08/31 04:26:24;;;;;;;9.15;6.28;;;;;;;17.27;98.79;94766.61;1537301;91;21093;-53
2022/08/31 04:28:52;;;;;;;10.85;6.80;;;;;;;17.26;99.04;94756.75;1535833;92;21172;-54
2022/08/31 04:31:20;;;;;;;15.78;7.45;;;;;;;17.29;99.46;94762.71;1535970;93;21013;-53
2022/08/31 04:33:49;;;;;;;26.05;6.95;;;;;;;17.29;99.35;94758.54;1537910;91;21485;-53
2022/08/31 04:36:22;;;;;;;14.15;6.03;;;;;;;17.30;99.90;94762.84;1535568;92;21191;-54
2022/08/31 04:38:55;;;;;;;10.03;5.92;;;;;;;17.39;99.99;94758.53;1536256;92;21174;-54
2022/08/31 04:41:25;;;;;;;11.22;6.55;;;;;;;17.50;99.66;94761.44;1533258;92;21120;-53
2022/08/31 04:43:54;;;;;;;10.53;7.05;;;;;;;17.58;99.53;94760.51;1536277;92;21029;-54
2022/08/31 04:46:23;;;;;;;14.65;6.10;;;;;;;17.63;98.59;94754.22;1536999;93;21548;-53
2022/08/31 04:48:51;;;;;;;9.38;6.30;;;;;;;17.65;98.41;94757.27;1536040;92;22140;-52
2022/08/31 04:51:25;;;;;;;11.15;6.37;;;;;;;17.70;98.10;94754.41;1537309;92;21261;-54
2022/08/31 04:53:53;;;;;;;10.20;6.53;;;;;;;17.76;97.71;94755.22;1536730;92;21140;-55
2022/08/31 04:56:26;;;;;;;10.40;7.45;;;;;;;17.79;97.43;94755.00;1536450;92;21529;-53
2022/08/31 04:58:57;;;;;;;10.05;7.10;;;;;;;17.82;97.08;94760.22;1549019;92;21147;-54
2022/08/31 05:01:28;;;;;;;9.60;6.67;;;;;;;17.81;96.63;94760.09;1568912;90;21256;-54
2022/08/31 05:04:14;;;;;;;10.43;7.42;;;;;;;17.84;96.39;94759.09;1552901;92;21107;-55
2022/08/31 05:06:44;;;;;;;9.98;7.67;;;;;;;17.85;95.09;94760.62;1555069;92;21017;-55
2022/08/31 05:09:16;;;;;;;11.57;8.03;;;;;;;17.84;94.49;94757.70;1554660;90;21029;-54
2022/08/31 05:11:45;;;;;;;11.65;9.38;;;;;;;17.84;94.46;94757.70;1586336;90;21003;-54
2022/08/31 05:14:13;;;;;;;10.70;7.33;;;;;;;17.83;94.29;94759.70;1586888;89;21302;-54
2022/08/31 05:16:42;;;;;;;12.58;7.90;;;;;;;17.86;94.02;94766.32;1560421;90;20996;-55
2022/08/31 05:19:10;;;;;;;9.30;7.00;;;;;;;17.89;93.60;94761.93;1584805;90;21048;-54
2022/08/31 05:21:39;;;;;;;9.90;6.55;;;;;;;17.95;92.83;94758.55;1535866;93;21048;-53
2022/08/31 05:24:14;;;;;;;12.05;7.35;;;;;;;17.99;91.84;94758.34;1549232;92;21100;-54
2022/08/31 05:26:48;;;;;;;11.38;6.67;;;;;;;18.02;91.30;94755.30;1540072;91;21299;-53
2022/08/31 05:29:18;;;;;;;13.45;6.58;;;;;;;18.07;91.04;94751.83;1543559;91;21121;-53
2022/08/31 05:31:47;;;;;;;10.38;5.58;;;;;;;18.13;89.68;94750.45;1533104;90;21298;-54
2022/08/31 05:34:16;;;;;;;10.63;5.67;;;;;;;18.13;88.45;94750.58;1560672;90;21106;-54
2022/08/31 05:36:45;;;;;;;24.87;7.12;;;;;;;18.18;87.70;94748.48;1560213;91;21155;-53
2022/08/31 05:39:13;;;;;;;15.30;7.50;;;;;;;18.25;87.65;94744.48;1559304;90;21188;-55
2022/08/31 05:41:44;;;;;;;13.50;6.97;;;;;;;18.36;86.86;94742.56;1559075;90;21004;-55
2022/08/31 05:44:12;;;;;;;12.40;6.45;;;;;;;18.42;86.09;94746.12;1582149;88;21507;-56
2022/08/31 05:46:40;;;;;;;14.78;5.47;;;;;;;18.49;85.38;94746.30;1560237;90;21101;-54
2022/08/31 05:49:08;;;;;;;11.15;6.20;;;;;;;18.48;84.69;94748.31;1580392;90;21595;-54
2022/08/31 05:51:37;;;;;;;9.58;5.72;;;;;;;18.46;84.61;94748.05;1581285;88;22082;-56
2022/08/31 05:54:05;;;;;;;10.90;5.80;;;;;;;18.51;84.51;94744.55;1578159;90;21048;-55
2022/08/31 05:56:34;;;;;;;15.78;7.15;;;;;;;18.62;84.42;94749.42;1560122;90;21116;-54
2022/08/31 05:59:02;;;;;;;10.93;6.35;;;;;;;18.70;83.75;94749.84;1563312;90;21091;-56
2022/08/31 06:01:34;;;;;;;12.50;6.22;;;;;;;18.75;83.44;94744.92;1535861;91;21130;-55
2022/08/31 06:04:03;;;;;;;;;;;;;;;18.82;83.50;94744.44;1557741;89;21226;-55
2022/08/31 06:06:31;;;;;;;10.98;6.20;;;;;;;18.93;82.93;94740.93;1568290;89;20512;-56
2022/08/31 06:08:59;;;;;;;19.02;11.40;;;;;;;18.98;82.38;94750.72;1568528;90;21576;-55
2022/08/31 06:11:29;;;;;;;14.45;7.47;;;;;;;19.03;81.90;94748.58;1573278;90;21184;-55
2022/08/31 06:13:59;;;;;;;12.78;6.40;;;;;;;19.08;81.75;94753.42;1566545;88;21096;-55
2022/08/31 06:16:27;;;;;;;15.78;6.22;;;;;;;19.16;81.84;94754.48;1555916;90;21223;-56
2022/08/31 06:18:55;;;;;;;18.30;6.67;;;;;;;19.25;81.38;94754.28;1550294;91;21117;-54
2022/08/31 06:21:25;;;;;;;9.33;6.08;;;;;;;19.34;80.56;94751.24;1566524;89;21126;-56
2022/08/31 06:23:53;;;;;;;8.20;5.97;;;;;;;19.42;80.00;94754.31;1575232;90;21525;-57
2022/08/31 06:26:24;;;;;;;16.42;6.20;;;;;;;19.42;79.23;94761.28;1560380;90;21211;-55
2022/08/31 06:28:53;;;;;;;10.82;5.72;;;;;;;19.43;78.89;94758.00;1566265;89;21261;-53
2022/08/31 06:31:26;;;;;;;12.20;8.15;;;;;;;19.48;78.88;94755.85;1556228;90;21621;-56
2022/08/31 06:33:55;;;;;;;17.77;6.78;;;;;;;19.52;78.62;94751.42;1566799;89;21105;-56
2022/08/31 06:36:37;;;;;;;11.18;6.28;;;;;;;19.50;78.21;94762.30;1528844;90;21200;-55
2022/08/31 06:39:18;;;;;;;13.70;7.90;;;;;;;19.45;78.10;94757.48;1491084;90;21068;-55
2022/08/31 06:41:51;;;;;;;11.22;7.28;;;;;;;19.42;78.42;94760.67;1548690;90;21169;-56
2022/08/31 06:44:35;;;;;;;27.77;8.05;;;;;;;19.39;78.27;94754.67;1538458;92;21115;-55
2022/08/31 06:47:08;;;;;;;;;;;;;;;19.30;78.12;94754.14;1560826;90;21059;-54
2022/08/31 06:49:38;;;;;;;9.28;6.15;;;;;;;19.25;78.31;94751.48;1561418;90;20216;-53
2022/08/31 06:52:06;;;;;;;12.53;7.75;;;;;;;19.20;78.58;94755.00;1539865;91;21198;-55
2022/08/31 06:54:35;;;;;;;11.75;6.97;;;;;;;19.21;78.83;94762.10;1550823;90;21112;-55
2022/08/31 06:57:21;;;;;;;13.35;6.85;;;;;;;19.26;78.93;94761.38;1549118;90;21816;-54
2022/08/31 07:00:08;;;;;;;11.75;6.85;;;;;;;19.31;78.50;94760.62;1511700;91;21535;-57
2022/08/31 07:02:41;;;;;;;16.45;6.12;;;;;;;19.38;78.50;94748.22;1517573;90;21091;-55
2022/08/31 07:05:10;;;;;;;12.98;6.35;;;;;;;19.53;78.80;94757.14;1556862;90;21119;-63
2022/08/31 07:07:38;;;;;;;13.25;6.50;;;;;;;19.70;78.84;94753.09;1535606;90;21175;-56
2022/08/31 07:10:09;;;;;;;12.10;6.28;;;;;;;19.85;78.89;94746.64;1553629;91;21110;-56
2022/08/31 07:12:37;;;;;;;19.57;7.28;;;;;;;20.04;78.20;94752.50;1562717;90;21657;-55
2022/08/31 07:15:06;;;;;;;9.60;6.03;;;;;;;20.20;77.66;94752.51;1604723;87;21543;-55
2022/08/31 07:17:34;;;;;;;11.45;5.50;;;;;;;20.31;76.32;94751.08;1577529;88;21778;-57
2022/08/31 07:20:04;;;;;;;19.32;6.72;;;;;;;20.42;75.26;94753.88;1588820;88;21289;-56
2022/08/31 07:22:33;;;;;;;13.58;6.50;;;;;;;20.47;74.32;94751.70;1549014;90;21128;-55
2022/08/31 07:25:19;;;;;;;15.10;7.10;;;;;;;20.51;73.24;94761.35;1588981;88;21146;-59
2022/08/31 07:27:49;;;;;;;15.08;7.05;;;;;;;20.55;72.73;94751.32;1543071;91;21131;-56
2022/08/31 07:30:17;;;;;;;11.22;5.58;;;;;;;20.61;72.76;94754.23;1550404;92;21055;-55
2022/08/31 07:32:45;;;;;;;9.93;6.03;;;;;;;20.66;71.75;94756.25;1555346;91;22160;-58
2022/08/31 07:35:13;;;;;;;13.28;6.20;;;;;;;20.72;71.79;94751.39;1550748;91;22185;-57
2022/08/31 07:43:16;;;;;;;11.18;6.65;;;;;;;21.03;71.40;94751.70;1548068;90;21560;-56
2022/08/31 07:45:45;;;;;;;11.20;6.25;;;;;;;21.06;71.25;94747.23;1566427;90;22808;-56
2022/08/31 07:48:15;;;;;;;15.00;7.65;;;;;;;21.14;72.18;94746.81;1558344;90;21610;-59
2022/08/31 07:50:57;;;;;;;10.63;5.78;;;;;;;21.23;71.84;94749.95;1569924;91;21203;-61
2022/08/31 07:53:46;;;;;;;11.40;5.58;;;;;;;21.29;72.09;94752.11;1568917;90;21151;-58
2022/08/31 07:56:32;;;;;;;9.48;5.53;;;;;;;21.30;70.64;94753.62;1554831;90;21136;-55
2022/08/31 07:59:17;;;;;;;12.13;7.60;;;;;;;21.35;69.88;94752.83;1554477;90;21532;-56
2022/08/31 08:01:47;;;;;;;14.20;8.28;;;;;;;21.39;68.80;94751.91;1560141;90;21577;-61
2022/08/31 08:04:25;;;;;;;22.25;6.65;;;;;;;21.42;68.07;94750.25;1561457;89;22375;-59
2022/08/31 08:07:11;;;;;;;7.58;5.95;;;;;;;21.46;67.38;94752.78;1559077;89;21521;-63
2022/08/31 08:09:58;;;;;;;9.20;5.12;;;;;;;21.53;66.31;94753.62;1532215;92;21611;-57
2022/08/31 08:12:35;;;;;;;10.93;5.80;;;;;;;21.55;66.73;94753.23;1518219;89;21524;-57
2022/08/31 08:15:00;;;;;;;13.33;6.20;;;;;;;21.52;66.83;94745.10;1525547;92;21164;-59
2022/08/31 08:17:38;;;;;;;11.85;6.90;;;;;;;21.51;67.41;94747.13;1502702;92;21162;-60
2022/08/31 08:20:11;;;;;;;16.17;6.20;;;;;;;21.56;66.20;94745.58;1553194;90;21125;-60
2022/08/31 08:22:42;;;;;;;12.78;6.00;;;;;;;21.59;65.87;94743.14;1550836;90;21551;-57
2022/08/31 08:25:11;;;;;;;9.73;5.95;;;;;;;21.67;66.28;94746.30;1570686;89;21184;-60
2022/08/31 08:27:48;;;;;;;9.95;5.87;;;;;;;21.85;66.14;94745.67;1552616;92;21079;-60
2022/08/31 08:30:19;;;;;;;10.40;6.40;;;;;;;22.07;65.50;94744.87;1521511;90;21072;-60
2022/08/31 08:32:47;;;;;;;17.98;7.65;;;;;;;22.24;63.65;94741.92;1567852;90;21055;-57
2022/08/31 08:35:15;;;;;;;10.60;6.35;;;;;;;22.36;63.65;94740.55;1532507;92;21032;-61
2022/08/31 08:37:46;;;;;;;20.05;6.87;;;;;;;22.52;64.07;94746.04;1536433;91;21261;-57
2022/08/31 08:40:27;;;;;;;13.30;6.67;;;;;;;22.67;63.30;94737.96;1552884;90;21111;-58
2022/08/31 08:42:57;;;;;;;9.63;6.28;;;;;;;22.78;63.05;94742.06;1523689;92;21207;-59
2022/08/31 08:45:26;;;;;;;11.70;5.47;;;;;;;22.89;62.52;94734.94;1557544;90;21094;-57
2022/08/31 08:47:55;;;;;;;11.88;6.03;;;;;;;22.95;60.74;94737.03;1569253;89;21675;-55
2022/08/31 08:50:26;;;;;;;8.98;6.05;;;;;;;22.99;61.33;94740.30;1585802;89;21310;-57
2022/08/31 08:52:55;;;;;;;9.80;6.05;;;;;;;23.09;59.50;94733.05;1564549;90;21860;-54
2022/08/31 08:55:35;;;;;;;10.55;6.58;;;;;;;23.11;59.98;94724.88;1562905;90;21187;-56
2022/08/31 08:58:06;;;;;;;13.62;5.97;;;;;;;23.01;60.15;94727.15;1554751;90;21184;-56
2022/08/31 09:00:40;;;;;;;11.50;6.03;;;;;;;22.94;59.80;94723.52;1558833;90;21091;-58
2022/08/31 09:03:32;;;;;;;10.33;6.43;;;;;;;22.91;59.84;94730.95;1559662;90;21270;-56
2022/08/31 09:06:20;;;;;;;8.45;6.50;;;;;;;22.93;60.35;94721.37;1548771;90;21102;-56
2022/08/31 09:09:10;;;;;;;11.15;5.83;;;;;;;22.98;60.17;94719.13;1561969;89;21145;-62
2022/08/31 09:12:11;;;;;;;12.05;5.87;;;;;;;23.05;60.04;94721.33;1532955;91;22292;-57
2022/08/31 09:15:02;;;;;;;7.13;5.27;;;;;;;23.18;60.14;94720.06;1526211;92;21111;-60
2022/08/31 09:17:57;;;;;;;10.75;5.87;;;;;;;23.39;59.29;94718.24;1559508;91;21345;-57
2022/08/31 09:20:27;;;;;;;10.65;6.00;;;;;;;23.47;58.66;94720.58;1561127;91;21578;-60
2022/08/31 09:22:57;;;;;;;10.80;6.28;;;;;;;23.52;59.13;94719.73;1576540;89;21089;-58
2022/08/31 09:25:32;;;;;;;7.92;5.78;;;;;;;23.53;58.26;94717.70;1586514;87;21039;-62
2022/08/31 09:28:10;;;;;;;10.28;5.65;;;;;;;23.58;59.20;94719.66;1586168;88;21139;-56
2022/08/31 09:30:44;;;;;;;13.13;5.67;;;;;;;23.62;58.77;94718.70;1551792;91;22661;-59
2022/08/31 09:33:22;;;;;;;10.68;6.42;;;;;;;23.70;58.00;94726.63;1521774;91;22225;-59
2022/08/31 09:35:57;;;;;;;8.08;5.50;;;;;;;23.88;58.92;94719.61;1553226;90;21247;-54
2022/08/31 09:38:37;;;;;;;13.67;6.07;;;;;;;24.03;58.07;94712.87;1570090;90;21043;-60
2022/08/31 09:41:07;;;;;;;9.15;6.33;;;;;;;24.14;57.25;94718.30;1535294;91;21104;-58
2022/08/31 09:43:37;;;;;;;12.25;6.85;;;;;;;24.15;56.06;94709.97;1546629;92;21316;-58
2022/08/31 09:46:35;;;;;;;12.47;6.50;;;;;;;24.15;56.78;94722.62;1532525;90;21562;-59
2022/08/31 09:49:01;;;;;;;11.28;6.20;;;;;;;24.12;56.64;94713.22;1526866;91;21095;-56
2022/08/31 09:51:35;;;;;;;9.35;6.33;;;;;;;24.27;57.74;94721.15;1567152;89;21066;-59
2022/08/31 09:57:08;;;;;;;8.85;6.40;;;;;;;24.41;55.83;94711.45;1557116;90;21197;-55
2022/08/31 09:59:43;;;;;;;15.72;6.75;;;;;;;24.42;54.97;94707.34;1551513;92;21589;-65
2022/08/31 10:02:36;;;;;;;7.83;6.08;;;;;;;24.37;55.24;94696.95;1564870;89;21052;-56
2022/08/31 10:05:06;;;;;;;7.50;6.62;;;;;;;24.35;56.02;94700.96;1568984;90;21004;-55
2022/08/31 10:07:40;;;;;;;12.53;6.42;;;;;;;24.32;56.67;94700.61;1513726;92;21158;-55
2022/08/31 10:10:14;;;;;;;14.83;6.47;;;;;;;24.60;57.10;94700.91;1556876;91;21311;-57
2022/08/31 10:12:50;;;;;;;11.75;6.70;;;;;;;24.83;56.03;94696.37;1558327;89;21030;-57
2022/08/31 10:15:47;;;;;;;13.03;6.30;;;;;;;24.82;55.04;94690.00;1557520;90;22526;-57
2022/08/31 10:18:38;;;;;;;11.05;5.75;;;;;;;24.80;55.00;94693.23;1556077;90;21422;-56
2022/08/31 10:21:12;;;;;;;13.08;6.53;;;;;;;24.81;55.34;94691.94;1574149;90;21142;-58
2022/08/31 10:23:53;;;;;;;11.22;6.35;;;;;;;24.79;54.25;94691.72;1544744;91;21158;-56
2022/08/31 10:26:19;;;;;;;8.70;6.22;;;;;;;24.83;54.50;94687.92;1537233;91;21104;-58
2022/08/31 10:28:53;;;;;;;12.58;6.28;;;;;;;24.78;54.28;94688.80;1554431;92;21151;-57
2022/08/31 10:31:30;;;;;;;9.63;5.95;;;;;;;24.72;54.84;94689.56;1552781;91;21078;-56
2022/08/31 10:37:23;;;;;;;10.00;5.55;;;;;;;24.99;54.13;94686.20;1556791;90;21196;-58
2022/08/31 10:39:57;;;;;;;10.40;6.25;;;;;;;25.06;53.29;94682.72;1539041;90;21055;-56
2022/08/31 10:42:36;;;;;;;6.85;5.33;;;;;;;25.20;53.08;94684.89;1572734;90;21634;-58
2022/08/31 10:45:10;;;;;;;9.48;6.12;;;;;;;25.61;53.59;94687.19;1572251;89;21104;-57
2022/08/31 10:47:45;;;;;;;9.18;6.30;;;;;;;26.09;52.04;94683.12;1547194;92;21092;-57
2022/08/31 10:50:29;;;;;;;10.08;5.53;;;;;;;26.30;50.79;94681.05;1571439;89;21173;-58
2022/08/31 10:53:21;;;;;;;10.23;5.37;;;;;;;26.25;50.14;94687.59;1582142;89;21122;-56
2022/08/31 10:55:57;;;;;;;6.90;5.60;;;;;;;25.98;50.57;94680.55;1565599;90;21755;-57
2022/08/31 10:58:32;;;;;;;13.83;6.40;;;;;;;25.80;51.33;94687.78;1537387;91;21094;-56
2022/08/31 11:01:15;;;;;;;10.88;7.72;;;;;;;25.72;51.22;94683.36;1553781;91;21083;-56
2022/08/31 11:04:07;;;;;;;13.32;7.75;;;;;;;25.73;51.08;94690.51;1563398;90;21276;-54
2022/08/31 11:06:49;;;;;;;10.65;6.30;;;;;;;26.09;51.49;94674.66;1560608;89;21142;-57
2022/08/31 11:09:25;;;;;;;11.78;7.05;;;;;;;26.73;50.21;94669.17;1571485;89;21155;-57
2022/08/31 11:11:58;;;;;;;10.15;6.45;;;;;;;27.10;49.26;94665.21;1573735;89;21701;-55
2022/08/31 11:15:01;;;;;;;10.50;5.67;;;;;;;27.05;47.87;94668.90;1559657;90;21095;-55
2022/08/31 11:18:00;;;;;;;7.72;5.35;;;;;;;26.66;48.32;94670.64;1561174;91;21124;-56
2022/08/31 11:20:59;;;;;;;10.58;5.55;;;;;;;26.22;49.08;94669.59;1565468;89;21655;-56
2022/08/31 11:23:44;;;;;;;9.38;5.47;;;;;;;25.84;49.96;94676.94;1559669;90;21076;-58
2022/08/31 11:27:00;;;;;;;9.83;5.78;;;;;;;25.73;50.84;94674.38;1540544;92;21206;-56
2022/08/31 11:29:45;;;;;;;8.28;4.75;;;;;;;25.98;50.58;94669.27;1478669;92;21618;-55
2022/08/31 11:32:23;;;;;;;8.05;5.47;;;;;;;26.38;50.83;94666.36;1545442;90;21949;-60
2022/08/31 11:34:53;;;;;;;10.05;6.05;;;;;;;27.05;50.41;94663.25;1559039;89;22042;-59
2022/08/31 11:37:54;;;;;;;10.55;6.00;;;;;;;27.45;47.85;94661.61;1541411;90;21150;-59
2022/08/31 11:40:43;;;;;;;7.72;5.33;;;;;;;27.50;47.19;94656.44;1528789;93;21177;-56
2022/08/31 11:43:34;;;;;;;11.48;6.47;;;;;;;27.22;47.44;94656.49;1536540;92;21497;-57
2022/08/31 11:46:27;;;;;;;7.37;5.97;;;;;;;27.16;46.90;94658.73;1533760;92;21455;-58
2022/08/31 11:48:57;;;;;;;15.65;6.20;;;;;;;27.25;47.95;94648.98;1534912;92;21272;-56
2022/08/31 11:51:32;;;;;;;8.08;5.90;;;;;;;27.12;46.89;94661.17;1562531;90;21107;-61
2022/08/31 11:54:02;;;;;;;12.00;8.88;;;;;;;26.85;46.57;94647.14;1565686;89;21512;-61
2022/08/31 11:56:35;;;;;;;17.15;7.62;;;;;;;26.49;47.25;94647.74;1582750;89;21172;-56
2022/08/31 11:59:37;;;;;;;15.43;7.53;;;;;;;26.11;48.28;94643.84;1543423;91;21266;-58
2022/08/31 12:02:26;;;;;;;10.35;6.42;;;;;;;25.79;49.08;94642.57;1533919;89;21072;-57
2022/08/31 12:04:59;;;;;;;18.05;7.05;;;;;;;25.53;49.83;94646.14;1527863;91;21065;-57
2022/08/31 12:07:37;;;;;;;15.23;9.88;;;;;;;25.34;50.73;94637.09;1564939;90;21620;-56
2022/08/31 12:10:29;;;;;;;16.07;9.13;;;;;;;25.23;50.64;94631.70;1492450;93;21134;-58
2022/08/31 12:13:07;;;;;;;15.68;8.55;;;;;;;25.13;50.76;94631.36;1544933;90;21912;-59